sensor_id;sensor_type;location;lat;lon;timestamp;P1;durP1;ratioP1;P2;durP2;ratioP2
69392;SDS011;56582;44.624;20.378;2023-07-31T00:00:06;13.90;;;9.60;;
69392;SDS011;56582;44.624;20.378;2023-07-31T00:02:34;15.23;;;9.63;;
69392;SDS011;56582;44.624;20.378;2023-07-31T00:04:59;14.30;;;9.77;;
69392;SDS011;56582;44.624;20.378;2023-07-31T00:07:25;13.37;;;9.47;;
69392;SDS011;56582;44.624;20.378;2023-07-31T00:09:51;16.80;;;9.65;;
69392;SDS011;56582;44.624;20.378;2023-07-31T00:12:16;13.60;;;9.60;;
69392;SDS011;56582;44.624;20.378;2023-07-31T00:14:41;15.30;;;10.00;;
69392;SDS011;56582;44.624;20.378;2023-07-31T00:17:08;18.52;;;10.25;;
69392;SDS011;56582;44.624;20.378;2023-07-31T00:19:33;17.93;;;10.40;;
69392;SDS011;56582;44.624;20.378;2023-07-31T00:21:59;49.38;;;10.55;;
69392;SDS011;56582;44.624;20.378;2023-07-31T00:24:24;21.40;;;10.20;;
69392;SDS011;56582;44.624;20.378;2023-07-31T00:26:50;26.60;;;9.87;;
69392;SDS011;56582;44.624;20.378;2023-07-31T00:29:15;17.77;;;9.40;;
69392;SDS011;56582;44.624;20.378;2023-07-31T00:31:41;17.67;;;10.45;;
69392;SDS011;56582;44.624;20.378;2023-07-31T00:34:06;15.33;;;10.33;;
69392;SDS011;56582;44.624;20.378;2023-07-31T00:36:32;13.82;;;10.07;;
69392;SDS011;56582;44.624;20.378;2023-07-31T00:38:57;14.07;;;9.40;;
69392;SDS011;56582;44.624;20.378;2023-07-31T00:41:23;13.50;;;9.97;;
69392;SDS011;56582;44.624;20.378;2023-07-31T00:43:48;13.98;;;10.30;;
69392;SDS011;56582;44.624;20.378;2023-07-31T00:46:14;16.20;;;9.57;;
69392;SDS011;56582;44.624;20.378;2023-07-31T00:48:39;13.47;;;10.03;;
69392;SDS011;56582;44.624;20.378;2023-07-31T00:51:05;15.13;;;9.90;;
69392;SDS011;56582;44.624;20.378;2023-07-31T00:53:31;14.10;;;10.40;;
69392;SDS011;56582;44.624;20.378;2023-07-31T00:55:57;14.20;;;10.27;;
69392;SDS011;56582;44.624;20.378;2023-07-31T00:58:23;17.97;;;9.83;;
69392;SDS011;56582;44.624;20.378;2023-07-31T01:00:48;15.38;;;10.43;;
69392;SDS011;56582;44.624;20.378;2023-07-31T01:03:15;18.50;;;10.53;;
69392;SDS011;56582;44.624;20.378;2023-07-31T01:08:44;14.43;;;9.90;;
69392;SDS011;56582;44.624;20.378;2023-07-31T01:11:25;17.57;;;10.80;;
69392;SDS011;56582;44.624;20.378;2023-07-31T01:13:54;16.15;;;9.85;;
69392;SDS011;56582;44.624;20.378;2023-07-31T01:16:20;16.17;;;10.23;;
69392;SDS011;56582;44.624;20.378;2023-07-31T01:18:46;27.77;;;10.60;;
69392;SDS011;56582;44.624;20.378;2023-07-31T01:26:28;17.70;;;11.38;;
69392;SDS011;56582;44.624;20.378;2023-07-31T01:29:03;31.52;;;11.25;;
69392;SDS011;56582;44.624;20.378;2023-07-31T01:31:32;17.35;;;10.93;;
69392;SDS011;56582;44.624;20.378;2023-07-31T01:34:00;22.33;;;11.67;;
69392;SDS011;56582;44.624;20.378;2023-07-31T01:36:27;21.60;;;10.98;;
69392;SDS011;56582;44.624;20.378;2023-07-31T01:39:00;14.77;;;11.43;;
69392;SDS011;56582;44.624;20.378;2023-07-31T01:41:26;16.90;;;10.65;;
69392;SDS011;56582;44.624;20.378;2023-07-31T01:43:52;14.60;;;10.47;;
69392;SDS011;56582;44.624;20.378;2023-07-31T01:46:17;17.00;;;10.65;;
69392;SDS011;56582;44.624;20.378;2023-07-31T01:48:43;29.90;;;10.77;;
69392;SDS011;56582;44.624;20.378;2023-07-31T01:51:08;19.20;;;10.63;;
69392;SDS011;56582;44.624;20.378;2023-07-31T01:53:34;38.13;;;11.33;;
69392;SDS011;56582;44.624;20.378;2023-07-31T01:55:59;18.25;;;11.27;;
69392;SDS011;56582;44.624;20.378;2023-07-31T01:58:25;19.07;;;11.63;;
69392;SDS011;56582;44.624;20.378;2023-07-31T02:00:50;17.00;;;11.00;;
69392;SDS011;56582;44.624;20.378;2023-07-31T02:03:16;18.13;;;11.03;;
69392;SDS011;56582;44.624;20.378;2023-07-31T02:05:45;19.02;;;10.93;;
69392;SDS011;56582;44.624;20.378;2023-07-31T02:08:11;15.23;;;10.47;;
69392;SDS011;56582;44.624;20.378;2023-07-31T02:10:36;17.13;;;11.80;;
69392;SDS011;56582;44.624;20.378;2023-07-31T02:13:02;15.97;;;10.50;;
69392;SDS011;56582;44.624;20.378;2023-07-31T02:15:29;17.60;;;11.32;;
69392;SDS011;56582;44.624;20.378;2023-07-31T02:17:55;16.50;;;11.05;;
69392;SDS011;56582;44.624;20.378;2023-07-31T02:20:21;17.87;;;10.37;;
69392;SDS011;56582;44.624;20.378;2023-07-31T02:22:49;16.98;;;10.82;;
69392;SDS011;56582;44.624;20.378;2023-07-31T02:25:15;17.23;;;10.70;;
69392;SDS011;56582;44.624;20.378;2023-07-31T02:27:40;17.33;;;11.90;;
69392;SDS011;56582;44.624;20.378;2023-07-31T02:30:06;18.70;;;11.65;;
69392;SDS011;56582;44.624;20.378;2023-07-31T02:32:32;16.83;;;11.98;;
69392;SDS011;56582;44.624;20.378;2023-07-31T02:34:58;22.67;;;12.67;;
69392;SDS011;56582;44.624;20.378;2023-07-31T02:37:23;17.85;;;10.90;;
69392;SDS011;56582;44.624;20.378;2023-07-31T02:39:49;17.93;;;12.63;;
69392;SDS011;56582;44.624;20.378;2023-07-31T02:42:14;18.57;;;12.57;;
69392;SDS011;56582;44.624;20.378;2023-07-31T02:44:40;20.57;;;12.97;;
69392;SDS011;56582;44.624;20.378;2023-07-31T02:47:05;17.60;;;12.32;;
69392;SDS011;56582;44.624;20.378;2023-07-31T02:49:31;18.90;;;11.77;;
69392;SDS011;56582;44.624;20.378;2023-07-31T02:51:57;38.53;;;13.75;;
69392;SDS011;56582;44.624;20.378;2023-07-31T02:54:22;16.27;;;11.53;;
69392;SDS011;56582;44.624;20.378;2023-07-31T02:56:47;22.00;;;13.17;;
69392;SDS011;56582;44.624;20.378;2023-07-31T02:59:13;17.15;;;12.05;;
69392;SDS011;56582;44.624;20.378;2023-07-31T03:01:38;24.20;;;11.87;;
69392;SDS011;56582;44.624;20.378;2023-07-31T03:04:04;21.47;;;12.23;;
69392;SDS011;56582;44.624;20.378;2023-07-31T03:06:30;17.67;;;12.23;;
69392;SDS011;56582;44.624;20.378;2023-07-31T03:08:55;18.60;;;12.77;;
69392;SDS011;56582;44.624;20.378;2023-07-31T03:11:21;23.27;;;12.03;;
69392;SDS011;56582;44.624;20.378;2023-07-31T03:13:46;18.65;;;11.20;;
69392;SDS011;56582;44.624;20.378;2023-07-31T03:16:11;28.23;;;11.80;;
69392;SDS011;56582;44.624;20.378;2023-07-31T03:18:37;24.70;;;12.67;;
69392;SDS011;56582;44.624;20.378;2023-07-31T03:21:02;45.60;;;12.70;;
69392;SDS011;56582;44.624;20.378;2023-07-31T03:23:29;55.58;;;13.00;;
69392;SDS011;56582;44.624;20.378;2023-07-31T03:25:58;29.95;;;11.70;;
69392;SDS011;56582;44.624;20.378;2023-07-31T03:28:30;18.00;;;12.70;;
69392;SDS011;56582;44.624;20.378;2023-07-31T03:30:55;20.13;;;12.73;;
69392;SDS011;56582;44.624;20.378;2023-07-31T03:33:21;16.63;;;11.37;;
69392;SDS011;56582;44.624;20.378;2023-07-31T03:35:46;17.23;;;11.47;;
69392;SDS011;56582;44.624;20.378;2023-07-31T03:38:12;15.07;;;11.07;;
69392;SDS011;56582;44.624;20.378;2023-07-31T03:40:38;16.08;;;11.27;;
69392;SDS011;56582;44.624;20.378;2023-07-31T03:43:03;15.07;;;10.33;;
69392;SDS011;56582;44.624;20.378;2023-07-31T03:45:29;14.55;;;10.57;;
69392;SDS011;56582;44.624;20.378;2023-07-31T03:47:55;15.80;;;10.57;;
69392;SDS011;56582;44.624;20.378;2023-07-31T03:50:20;17.20;;;10.77;;
69392;SDS011;56582;44.624;20.378;2023-07-31T03:52:46;15.73;;;11.37;;
69392;SDS011;56582;44.624;20.378;2023-07-31T03:55:12;13.70;;;10.48;;
69392;SDS011;56582;44.624;20.378;2023-07-31T03:57:37;16.50;;;11.07;;
69392;SDS011;56582;44.624;20.378;2023-07-31T04:00:03;14.90;;;10.23;;
69392;SDS011;56582;44.624;20.378;2023-07-31T04:02:29;14.85;;;10.65;;
69392;SDS011;56582;44.624;20.378;2023-07-31T04:05:00;13.97;;;10.17;;
69392;SDS011;56582;44.624;20.378;2023-07-31T04:07:27;14.38;;;10.93;;
69392;SDS011;56582;44.624;20.378;2023-07-31T04:09:52;13.40;;;9.97;;
69392;SDS011;56582;44.624;20.378;2023-07-31T04:12:18;16.17;;;11.43;;
69392;SDS011;56582;44.624;20.378;2023-07-31T04:14:43;15.53;;;11.43;;
69392;SDS011;56582;44.624;20.378;2023-07-31T04:17:08;14.67;;;11.13;;
69392;SDS011;56582;44.624;20.378;2023-07-31T04:19:34;14.57;;;11.73;;
69392;SDS011;56582;44.624;20.378;2023-07-31T04:21:59;15.13;;;11.80;;
69392;SDS011;56582;44.624;20.378;2023-07-31T04:24:25;16.87;;;11.20;;
69392;SDS011;56582;44.624;20.378;2023-07-31T04:26:50;15.03;;;10.33;;
69392;SDS011;56582;44.624;20.378;2023-07-31T04:29:16;16.08;;;10.20;;
69392;SDS011;56582;44.624;20.378;2023-07-31T04:31:42;13.70;;;9.83;;
69392;SDS011;56582;44.624;20.378;2023-07-31T04:34:07;15.70;;;11.10;;
69392;SDS011;56582;44.624;20.378;2023-07-31T04:36:33;13.47;;;10.13;;
69392;SDS011;56582;44.624;20.378;2023-07-31T04:38:59;14.93;;;9.75;;
69392;SDS011;56582;44.624;20.378;2023-07-31T04:41:25;17.05;;;10.02;;
69392;SDS011;56582;44.624;20.378;2023-07-31T04:43:50;12.47;;;10.03;;
69392;SDS011;56582;44.624;20.378;2023-07-31T04:46:15;12.87;;;9.80;;
69392;SDS011;56582;44.624;20.378;2023-07-31T04:48:41;13.47;;;9.13;;
69392;SDS011;56582;44.624;20.378;2023-07-31T04:51:07;12.77;;;8.73;;
69392;SDS011;56582;44.624;20.378;2023-07-31T04:53:32;12.97;;;9.90;;
69392;SDS011;56582;44.624;20.378;2023-07-31T04:55:58;15.80;;;10.13;;
69392;SDS011;56582;44.624;20.378;2023-07-31T04:58:23;12.47;;;8.87;;
69392;SDS011;56582;44.624;20.378;2023-07-31T05:00:49;13.27;;;9.63;;
69392;SDS011;56582;44.624;20.378;2023-07-31T05:03:14;13.87;;;9.53;;
69392;SDS011;56582;44.624;20.378;2023-07-31T05:05:39;14.18;;;9.40;;
69392;SDS011;56582;44.624;20.378;2023-07-31T05:08:05;13.50;;;10.07;;
69392;SDS011;56582;44.624;20.378;2023-07-31T05:10:30;12.30;;;9.27;;
69392;SDS011;56582;44.624;20.378;2023-07-31T05:12:56;13.50;;;10.07;;
69392;SDS011;56582;44.624;20.378;2023-07-31T05:15:22;12.17;;;9.90;;
69392;SDS011;56582;44.624;20.378;2023-07-31T05:17:47;12.90;;;9.40;;
69392;SDS011;56582;44.624;20.378;2023-07-31T05:20:12;12.00;;;9.47;;
69392;SDS011;56582;44.624;20.378;2023-07-31T05:22:38;12.63;;;9.75;;
69392;SDS011;56582;44.624;20.378;2023-07-31T05:25:03;12.50;;;9.87;;
69392;SDS011;56582;44.624;20.378;2023-07-31T05:27:29;14.45;;;11.02;;
69392;SDS011;56582;44.624;20.378;2023-07-31T05:29:55;14.30;;;9.43;;
69392;SDS011;56582;44.624;20.378;2023-07-31T05:32:20;14.20;;;11.63;;
69392;SDS011;56582;44.624;20.378;2023-07-31T05:34:45;13.90;;;10.13;;
69392;SDS011;56582;44.624;20.378;2023-07-31T05:37:11;13.75;;;10.85;;
69392;SDS011;56582;44.624;20.378;2023-07-31T05:39:37;15.50;;;10.87;;
69392;SDS011;56582;44.624;20.378;2023-07-31T05:42:02;12.63;;;10.07;;
69392;SDS011;56582;44.624;20.378;2023-07-31T05:44:28;13.80;;;9.87;;
69392;SDS011;56582;44.624;20.378;2023-07-31T05:46:53;13.77;;;10.00;;
69392;SDS011;56582;44.624;20.378;2023-07-31T05:49:19;13.27;;;9.27;;
69392;SDS011;56582;44.624;20.378;2023-07-31T05:51:44;13.93;;;8.20;;
69392;SDS011;56582;44.624;20.378;2023-07-31T05:54:10;11.63;;;8.53;;
69392;SDS011;56582;44.624;20.378;2023-07-31T05:56:35;14.77;;;8.70;;
69392;SDS011;56582;44.624;20.378;2023-07-31T05:59:00;10.90;;;8.23;;
69392;SDS011;56582;44.624;20.378;2023-07-31T06:01:26;13.80;;;9.27;;
69392;SDS011;56582;44.624;20.378;2023-07-31T06:03:51;10.43;;;8.63;;
69392;SDS011;56582;44.624;20.378;2023-07-31T06:06:17;10.53;;;8.37;;
69392;SDS011;56582;44.624;20.378;2023-07-31T06:08:42;11.82;;;8.20;;
69392;SDS011;56582;44.624;20.378;2023-07-31T06:11:08;11.77;;;8.53;;
69392;SDS011;56582;44.624;20.378;2023-07-31T06:13:34;12.15;;;8.38;;
69392;SDS011;56582;44.624;20.378;2023-07-31T06:16:00;11.90;;;9.00;;
69392;SDS011;56582;44.624;20.378;2023-07-31T06:18:27;11.45;;;8.18;;
69392;SDS011;56582;44.624;20.378;2023-07-31T06:20:53;12.17;;;8.60;;
69392;SDS011;56582;44.624;20.378;2023-07-31T06:23:19;11.15;;;8.13;;
69392;SDS011;56582;44.624;20.378;2023-07-31T06:25:45;10.30;;;8.50;;
69392;SDS011;56582;44.624;20.378;2023-07-31T06:28:11;9.93;;;7.03;;
69392;SDS011;56582;44.624;20.378;2023-07-31T06:30:36;8.77;;;6.80;;
69392;SDS011;56582;44.624;20.378;2023-07-31T06:33:02;11.18;;;7.13;;
69392;SDS011;56582;44.624;20.378;2023-07-31T06:35:28;9.10;;;7.27;;
69392;SDS011;56582;44.624;20.378;2023-07-31T06:37:53;9.85;;;6.50;;
69392;SDS011;56582;44.624;20.378;2023-07-31T06:40:19;10.07;;;7.37;;
69392;SDS011;56582;44.624;20.378;2023-07-31T06:42:44;8.93;;;7.43;;
69392;SDS011;56582;44.624;20.378;2023-07-31T06:45:10;11.00;;;7.35;;
69392;SDS011;56582;44.624;20.378;2023-07-31T06:47:35;10.30;;;7.43;;
69392;SDS011;56582;44.624;20.378;2023-07-31T06:50:01;8.67;;;7.23;;
69392;SDS011;56582;44.624;20.378;2023-07-31T06:52:26;9.63;;;7.40;;
69392;SDS011;56582;44.624;20.378;2023-07-31T06:55:02;9.43;;;7.90;;
69392;SDS011;56582;44.624;20.378;2023-07-31T06:57:28;9.13;;;7.80;;
69392;SDS011;56582;44.624;20.378;2023-07-31T06:59:54;10.30;;;8.83;;
69392;SDS011;56582;44.624;20.378;2023-07-31T07:02:20;9.43;;;7.73;;
69392;SDS011;56582;44.624;20.378;2023-07-31T07:04:45;8.10;;;6.85;;
69392;SDS011;56582;44.624;20.378;2023-07-31T07:07:11;9.83;;;6.47;;
69392;SDS011;56582;44.624;20.378;2023-07-31T07:09:36;8.93;;;6.95;;
69392;SDS011;56582;44.624;20.378;2023-07-31T07:12:02;9.53;;;7.63;;
69392;SDS011;56582;44.624;20.378;2023-07-31T07:14:27;9.57;;;7.10;;
69392;SDS011;56582;44.624;20.378;2023-07-31T07:16:53;7.97;;;6.80;;
69392;SDS011;56582;44.624;20.378;2023-07-31T07:19:18;9.45;;;7.18;;
69392;SDS011;56582;44.624;20.378;2023-07-31T07:21:44;9.07;;;7.50;;
69392;SDS011;56582;44.624;20.378;2023-07-31T07:24:09;8.97;;;7.37;;
69392;SDS011;56582;44.624;20.378;2023-07-31T07:26:34;9.10;;;6.60;;
69392;SDS011;56582;44.624;20.378;2023-07-31T07:29:00;8.00;;;6.93;;
69392;SDS011;56582;44.624;20.378;2023-07-31T07:31:27;8.00;;;6.53;;
69392;SDS011;56582;44.624;20.378;2023-07-31T07:33:53;8.13;;;7.00;;
69392;SDS011;56582;44.624;20.378;2023-07-31T07:36:18;6.93;;;5.53;;
69392;SDS011;56582;44.624;20.378;2023-07-31T07:38:44;8.45;;;5.50;;
69392;SDS011;56582;44.624;20.378;2023-07-31T07:41:09;8.87;;;5.83;;
69392;SDS011;56582;44.624;20.378;2023-07-31T07:43:35;8.30;;;5.77;;
69392;SDS011;56582;44.624;20.378;2023-07-31T07:46:00;6.57;;;5.00;;
69392;SDS011;56582;44.624;20.378;2023-07-31T07:48:25;8.38;;;5.50;;
69392;SDS011;56582;44.624;20.378;2023-07-31T07:50:51;6.80;;;5.63;;
69392;SDS011;56582;44.624;20.378;2023-07-31T07:53:16;9.30;;;5.70;;
69392;SDS011;56582;44.624;20.378;2023-07-31T07:55:42;8.07;;;5.10;;
69392;SDS011;56582;44.624;20.378;2023-07-31T07:58:07;7.23;;;5.70;;
69392;SDS011;56582;44.624;20.378;2023-07-31T08:00:33;7.57;;;5.53;;
69392;SDS011;56582;44.624;20.378;2023-07-31T08:02:59;6.07;;;5.03;;
69392;SDS011;56582;44.624;20.378;2023-07-31T08:05:24;7.40;;;5.67;;
69392;SDS011;56582;44.624;20.378;2023-07-31T08:07:50;6.80;;;4.87;;
69392;SDS011;56582;44.624;20.378;2023-07-31T08:10:15;7.43;;;5.00;;
69392;SDS011;56582;44.624;20.378;2023-07-31T08:12:41;7.00;;;5.10;;
69392;SDS011;56582;44.624;20.378;2023-07-31T08:15:06;6.40;;;5.13;;
69392;SDS011;56582;44.624;20.378;2023-07-31T08:17:32;7.38;;;5.22;;
69392;SDS011;56582;44.624;20.378;2023-07-31T08:19:58;7.37;;;5.07;;
69392;SDS011;56582;44.624;20.378;2023-07-31T08:22:23;8.38;;;6.30;;
69392;SDS011;56582;44.624;20.378;2023-07-31T08:24:50;6.50;;;5.47;;
69392;SDS011;56582;44.624;20.378;2023-07-31T08:27:15;6.88;;;5.20;;
69392;SDS011;56582;44.624;20.378;2023-07-31T08:29:42;7.22;;;5.57;;
69392;SDS011;56582;44.624;20.378;2023-07-31T08:32:07;6.80;;;5.30;;
69392;SDS011;56582;44.624;20.378;2023-07-31T08:34:32;8.43;;;5.40;;
69392;SDS011;56582;44.624;20.378;2023-07-31T08:36:58;7.82;;;4.80;;
69392;SDS011;56582;44.624;20.378;2023-07-31T08:39:24;7.30;;;4.70;;
69392;SDS011;56582;44.624;20.378;2023-07-31T08:41:50;6.95;;;4.93;;
69392;SDS011;56582;44.624;20.378;2023-07-31T08:44:15;6.20;;;4.60;;
69392;SDS011;56582;44.624;20.378;2023-07-31T08:46:42;6.07;;;4.30;;
69392;SDS011;56582;44.624;20.378;2023-07-31T08:49:08;6.30;;;4.18;;
69392;SDS011;56582;44.624;20.378;2023-07-31T08:51:35;6.93;;;4.50;;
69392;SDS011;56582;44.624;20.378;2023-07-31T08:54:01;5.78;;;3.97;;
69392;SDS011;56582;44.624;20.378;2023-07-31T08:56:29;6.05;;;4.30;;
69392;SDS011;56582;44.624;20.378;2023-07-31T08:58:56;6.63;;;4.20;;
69392;SDS011;56582;44.624;20.378;2023-07-31T09:01:23;6.00;;;3.95;;
69392;SDS011;56582;44.624;20.378;2023-07-31T09:03:49;7.57;;;3.30;;
69392;SDS011;56582;44.624;20.378;2023-07-31T09:06:17;4.80;;;3.38;;
69392;SDS011;56582;44.624;20.378;2023-07-31T09:08:44;5.13;;;3.50;;
69392;SDS011;56582;44.624;20.378;2023-07-31T09:11:09;5.00;;;3.30;;
69392;SDS011;56582;44.624;20.378;2023-07-31T09:13:35;6.07;;;3.75;;
69392;SDS011;56582;44.624;20.378;2023-07-31T09:16:01;4.70;;;3.40;;
69392;SDS011;56582;44.624;20.378;2023-07-31T09:18:27;4.97;;;3.07;;
69392;SDS011;56582;44.624;20.378;2023-07-31T09:21:05;5.07;;;3.40;;
69392;SDS011;56582;44.624;20.378;2023-07-31T09:23:44;5.30;;;3.55;;
69392;SDS011;56582;44.624;20.378;2023-07-31T09:26:11;4.45;;;3.20;;
69392;SDS011;56582;44.624;20.378;2023-07-31T09:28:53;4.30;;;2.90;;
69392;SDS011;56582;44.624;20.378;2023-07-31T09:31:21;5.53;;;3.23;;
69392;SDS011;56582;44.624;20.378;2023-07-31T09:33:57;5.10;;;4.07;;
69392;SDS011;56582;44.624;20.378;2023-07-31T09:36:22;5.93;;;3.83;;
69392;SDS011;56582;44.624;20.378;2023-07-31T09:38:48;5.20;;;3.77;;
69392;SDS011;56582;44.624;20.378;2023-07-31T09:41:13;6.38;;;4.57;;
69392;SDS011;56582;44.624;20.378;2023-07-31T09:43:39;5.10;;;3.20;;
69392;SDS011;56582;44.624;20.378;2023-07-31T09:46:04;4.97;;;2.93;;
69392;SDS011;56582;44.624;20.378;2023-07-31T09:48:38;5.22;;;3.03;;
69392;SDS011;56582;44.624;20.378;2023-07-31T09:51:04;4.60;;;2.87;;
69392;SDS011;56582;44.624;20.378;2023-07-31T09:53:30;5.15;;;3.22;;
69392;SDS011;56582;44.624;20.378;2023-07-31T09:55:57;5.10;;;3.17;;
69392;SDS011;56582;44.624;20.378;2023-07-31T09:58:24;5.20;;;2.75;;
69392;SDS011;56582;44.624;20.378;2023-07-31T10:00:53;5.20;;;3.60;;
69392;SDS011;56582;44.624;20.378;2023-07-31T10:03:19;5.20;;;3.50;;
69392;SDS011;56582;44.624;20.378;2023-07-31T10:05:45;5.07;;;3.30;;
69392;SDS011;56582;44.624;20.378;2023-07-31T10:08:18;5.63;;;2.50;;
69392;SDS011;56582;44.624;20.378;2023-07-31T10:10:46;5.10;;;2.22;;
69392;SDS011;56582;44.624;20.378;2023-07-31T10:13:12;4.13;;;2.53;;
69392;SDS011;56582;44.624;20.378;2023-07-31T10:15:38;5.38;;;2.72;;
69392;SDS011;56582;44.624;20.378;2023-07-31T10:18:06;4.93;;;2.75;;
69392;SDS011;56582;44.624;20.378;2023-07-31T10:20:32;4.07;;;2.83;;
69392;SDS011;56582;44.624;20.378;2023-07-31T10:22:57;4.73;;;2.53;;
69392;SDS011;56582;44.624;20.378;2023-07-31T10:25:26;4.72;;;2.45;;
69392;SDS011;56582;44.624;20.378;2023-07-31T10:27:52;4.90;;;2.57;;
69392;SDS011;56582;44.624;20.378;2023-07-31T10:30:18;4.30;;;2.60;;
69392;SDS011;56582;44.624;20.378;2023-07-31T10:32:46;4.20;;;2.50;;
69392;SDS011;56582;44.624;20.378;2023-07-31T10:35:14;4.43;;;3.25;;
69392;SDS011;56582;44.624;20.378;2023-07-31T10:37:43;5.25;;;3.03;;
69392;SDS011;56582;44.624;20.378;2023-07-31T10:40:15;5.37;;;3.63;;
69392;SDS011;56582;44.624;20.378;2023-07-31T10:45:13;6.43;;;3.53;;
69392;SDS011;56582;44.624;20.378;2023-07-31T10:47:42;4.27;;;2.87;;
69392;SDS011;56582;44.624;20.378;2023-07-31T10:52:48;4.90;;;3.45;;
69392;SDS011;56582;44.624;20.378;2023-07-31T10:57:49;5.40;;;3.73;;
69392;SDS011;56582;44.624;20.378;2023-07-31T11:00:19;4.50;;;3.22;;
69392;SDS011;56582;44.624;20.378;2023-07-31T11:02:59;4.70;;;3.20;;
69392;SDS011;56582;44.624;20.378;2023-07-31T11:05:44;4.53;;;3.00;;
69392;SDS011;56582;44.624;20.378;2023-07-31T11:08:17;4.95;;;2.72;;
69392;SDS011;56582;44.624;20.378;2023-07-31T11:10:49;5.38;;;3.20;;
69392;SDS011;56582;44.624;20.378;2023-07-31T11:15:58;5.15;;;3.20;;
69392;SDS011;56582;44.624;20.378;2023-07-31T11:18:25;4.30;;;2.87;;
69392;SDS011;56582;44.624;20.378;2023-07-31T11:20:52;5.03;;;3.10;;
69392;SDS011;56582;44.624;20.378;2023-07-31T11:23:18;5.47;;;3.72;;
69392;SDS011;56582;44.624;20.378;2023-07-31T11:25:44;6.05;;;3.10;;
69392;SDS011;56582;44.624;20.378;2023-07-31T11:28:11;6.83;;;3.60;;
69392;SDS011;56582;44.624;20.378;2023-07-31T11:30:37;4.88;;;2.58;;
69392;SDS011;56582;44.624;20.378;2023-07-31T11:33:05;5.15;;;2.95;;
69392;SDS011;56582;44.624;20.378;2023-07-31T11:35:35;5.95;;;3.35;;
69392;SDS011;56582;44.624;20.378;2023-07-31T11:38:06;3.93;;;2.80;;
69392;SDS011;56582;44.624;20.378;2023-07-31T11:40:40;5.25;;;3.20;;
69392;SDS011;56582;44.624;20.378;2023-07-31T11:43:09;4.53;;;2.80;;
69392;SDS011;56582;44.624;20.378;2023-07-31T11:45:36;5.07;;;2.88;;
69392;SDS011;56582;44.624;20.378;2023-07-31T11:48:03;5.30;;;3.33;;
69392;SDS011;56582;44.624;20.378;2023-07-31T11:50:29;4.27;;;2.77;;
69392;SDS011;56582;44.624;20.378;2023-07-31T11:52:59;4.60;;;2.08;;
69392;SDS011;56582;44.624;20.378;2023-07-31T11:55:28;5.10;;;3.10;;
69392;SDS011;56582;44.624;20.378;2023-07-31T11:57:55;5.30;;;3.03;;
69392;SDS011;56582;44.624;20.378;2023-07-31T12:00:22;5.95;;;3.72;;
69392;SDS011;56582;44.624;20.378;2023-07-31T12:02:48;8.00;;;3.17;;
69392;SDS011;56582;44.624;20.378;2023-07-31T12:05:15;5.38;;;2.72;;
69392;SDS011;56582;44.624;20.378;2023-07-31T12:10:25;5.90;;;2.95;;
69392;SDS011;56582;44.624;20.378;2023-07-31T12:13:00;5.63;;;2.65;;
69392;SDS011;56582;44.624;20.378;2023-07-31T12:15:31;6.45;;;2.90;;
69392;SDS011;56582;44.624;20.378;2023-07-31T12:17:58;5.40;;;2.40;;
69392;SDS011;56582;44.624;20.378;2023-07-31T12:20:24;4.20;;;2.60;;
69392;SDS011;56582;44.624;20.378;2023-07-31T12:22:49;5.47;;;3.17;;
69392;SDS011;56582;44.624;20.378;2023-07-31T12:25:18;6.33;;;2.80;;
69392;SDS011;56582;44.624;20.378;2023-07-31T12:27:44;8.00;;;2.80;;
69392;SDS011;56582;44.624;20.378;2023-07-31T12:30:31;5.93;;;2.63;;
69392;SDS011;56582;44.624;20.378;2023-07-31T12:33:04;5.10;;;2.70;;
69392;SDS011;56582;44.624;20.378;2023-07-31T12:35:37;6.15;;;2.78;;
69392;SDS011;56582;44.624;20.378;2023-07-31T12:38:05;5.50;;;2.10;;
69392;SDS011;56582;44.624;20.378;2023-07-31T12:40:31;5.53;;;2.67;;
69392;SDS011;56582;44.624;20.378;2023-07-31T12:42:57;4.40;;;3.10;;
69392;SDS011;56582;44.624;20.378;2023-07-31T12:45:25;6.75;;;3.25;;
69392;SDS011;56582;44.624;20.378;2023-07-31T12:47:52;4.87;;;3.17;;
69392;SDS011;56582;44.624;20.378;2023-07-31T12:50:17;6.10;;;3.20;;
69392;SDS011;56582;44.624;20.378;2023-07-31T12:52:42;4.70;;;2.90;;
69392;SDS011;56582;44.624;20.378;2023-07-31T12:55:08;4.80;;;3.00;;
69392;SDS011;56582;44.624;20.378;2023-07-31T12:57:35;4.45;;;2.40;;
69392;SDS011;56582;44.624;20.378;2023-07-31T13:00:01;3.80;;;2.17;;
69392;SDS011;56582;44.624;20.378;2023-07-31T13:02:27;4.30;;;2.30;;
69392;SDS011;56582;44.624;20.378;2023-07-31T13:04:52;3.93;;;2.37;;
69392;SDS011;56582;44.624;20.378;2023-07-31T13:07:19;5.10;;;2.33;;
69392;SDS011;56582;44.624;20.378;2023-07-31T13:09:45;4.28;;;2.60;;
69392;SDS011;56582;44.624;20.378;2023-07-31T13:12:10;5.33;;;2.30;;
69392;SDS011;56582;44.624;20.378;2023-07-31T13:14:35;4.73;;;2.27;;
69392;SDS011;56582;44.624;20.378;2023-07-31T13:17:01;6.40;;;2.58;;
69392;SDS011;56582;44.624;20.378;2023-07-31T13:19:27;4.53;;;2.40;;
69392;SDS011;56582;44.624;20.378;2023-07-31T13:21:52;5.50;;;2.67;;
69392;SDS011;56582;44.624;20.378;2023-07-31T13:24:18;5.77;;;2.60;;
69392;SDS011;56582;44.624;20.378;2023-07-31T13:26:43;5.00;;;2.70;;
69392;SDS011;56582;44.624;20.378;2023-07-31T13:29:08;5.47;;;2.70;;
69392;SDS011;56582;44.624;20.378;2023-07-31T13:31:34;6.37;;;2.40;;
69392;SDS011;56582;44.624;20.378;2023-07-31T13:34:00;3.93;;;2.10;;
69392;SDS011;56582;44.624;20.378;2023-07-31T13:36:26;4.45;;;2.75;;
69392;SDS011;56582;44.624;20.378;2023-07-31T13:38:51;4.87;;;2.40;;
69392;SDS011;56582;44.624;20.378;2023-07-31T13:41:16;4.80;;;2.53;;
69392;SDS011;56582;44.624;20.378;2023-07-31T13:43:42;5.87;;;2.37;;
69392;SDS011;56582;44.624;20.378;2023-07-31T13:46:07;5.40;;;2.00;;
69392;SDS011;56582;44.624;20.378;2023-07-31T13:48:35;6.10;;;1.98;;
69392;SDS011;56582;44.624;20.378;2023-07-31T13:51:01;4.57;;;2.53;;
69392;SDS011;56582;44.624;20.378;2023-07-31T13:53:27;6.57;;;2.70;;
69392;SDS011;56582;44.624;20.378;2023-07-31T13:55:53;5.13;;;2.47;;
69392;SDS011;56582;44.624;20.378;2023-07-31T13:58:19;5.10;;;2.03;;
69392;SDS011;56582;44.624;20.378;2023-07-31T14:00:45;7.77;;;2.50;;
69392;SDS011;56582;44.624;20.378;2023-07-31T14:03:10;5.93;;;2.53;;
69392;SDS011;56582;44.624;20.378;2023-07-31T14:05:37;5.77;;;2.80;;
69392;SDS011;56582;44.624;20.378;2023-07-31T14:08:03;4.00;;;2.35;;
69392;SDS011;56582;44.624;20.378;2023-07-31T14:10:28;6.57;;;2.60;;
69392;SDS011;56582;44.624;20.378;2023-07-31T14:12:54;3.90;;;2.17;;
69392;SDS011;56582;44.624;20.378;2023-07-31T14:15:19;3.83;;;2.07;;
69392;SDS011;56582;44.624;20.378;2023-07-31T14:17:45;4.80;;;2.27;;
69392;SDS011;56582;44.624;20.378;2023-07-31T14:20:10;5.10;;;2.23;;
69392;SDS011;56582;44.624;20.378;2023-07-31T14:22:36;6.18;;;2.50;;
69392;SDS011;56582;44.624;20.378;2023-07-31T14:25:02;4.72;;;2.40;;
69392;SDS011;56582;44.624;20.378;2023-07-31T14:27:28;4.10;;;2.27;;
69392;SDS011;56582;44.624;20.378;2023-07-31T14:29:54;4.40;;;2.10;;
69392;SDS011;56582;44.624;20.378;2023-07-31T14:32:20;4.87;;;2.13;;
69392;SDS011;56582;44.624;20.378;2023-07-31T14:34:46;5.75;;;2.70;;
69392;SDS011;56582;44.624;20.378;2023-07-31T14:37:12;6.07;;;2.47;;
69392;SDS011;56582;44.624;20.378;2023-07-31T14:39:37;3.97;;;2.20;;